sensor_id;sensor_type;location;lat;lon;timestamp;temperature;humidity
24207;DHT22;12351;52.284;9.160;2023-09-07T00:01:38;23.50;99.90
24207;DHT22;12351;52.284;9.160;2023-09-07T00:04:25;23.40;99.90
24207;DHT22;12351;52.284;9.160;2023-09-07T00:07:12;23.30;99.90
24207;DHT22;12351;52.284;9.160;2023-09-07T00:10:01;23.30;99.90
24207;DHT22;12351;52.284;9.160;2023-09-07T00:12:48;23.20;99.90
24207;DHT22;12351;52.284;9.160;2023-09-07T00:15:37;23.20;99.90
24207;DHT22;12351;52.284;9.160;2023-09-07T00:18:24;23.10;99.90
24207;DHT22;12351;52.284;9.160;2023-09-07T00:21:11;23.00;99.90
24207;DHT22;12351;52.284;9.160;2023-09-07T00:24:00;22.90;99.90
24207;DHT22;12351;52.284;9.160;2023-09-07T00:26:50;22.80;99.90
24207;DHT22;12351;52.284;9.160;2023-09-07T00:29:38;22.80;99.90
24207;DHT22;12351;52.284;9.160;2023-09-07T00:32:27;22.70;99.90
24207;DHT22;12351;52.284;9.160;2023-09-07T00:35:14;22.60;99.90
24207;DHT22;12351;52.284;9.160;2023-09-07T00:38:01;22.50;99.90
24207;DHT22;12351;52.284;9.160;2023-09-07T00:40:49;22.50;99.90
24207;DHT22;12351;52.284;9.160;2023-09-07T00:43:38;22.40;99.90
24207;DHT22;12351;52.284;9.160;2023-09-07T00:46:32;22.40;99.90
24207;DHT22;12351;52.284;9.160;2023-09-07T00:49:20;22.30;99.90
24207;DHT22;12351;52.284;9.160;2023-09-07T00:52:10;22.20;99.90
24207;DHT22;12351;52.284;9.160;2023-09-07T00:54:58;22.20;99.90
24207;DHT22;12351;52.284;9.160;2023-09-07T00:57:45;22.10;99.90
24207;DHT22;12351;52.284;9.160;2023-09-07T01:00:34;22.10;99.90
24207;DHT22;12351;52.284;9.160;2023-09-07T01:03:22;22.00;99.90
24207;DHT22;12351;52.284;9.160;2023-09-07T01:06:12;21.90;99.90
24207;DHT22;12351;52.284;9.160;2023-09-07T01:09:01;21.90;99.90
24207;DHT22;12351;52.284;9.160;2023-09-07T01:11:50;21.80;99.90
24207;DHT22;12351;52.284;9.160;2023-09-07T01:14:40;21.70;99.90
24207;DHT22;12351;52.284;9.160;2023-09-07T01:17:28;21.60;99.90
24207;DHT22;12351;52.284;9.160;2023-09-07T01:20:16;21.60;99.90
24207;DHT22;12351;52.284;9.160;2023-09-07T01:23:04;21.50;99.90
24207;DHT22;12351;52.284;9.160;2023-09-07T01:25:51;21.50;99.90
24207;DHT22;12351;52.284;9.160;2023-09-07T01:28:41;21.40;99.90
24207;DHT22;12351;52.284;9.160;2023-09-07T01:31:29;21.40;99.90
24207;DHT22;12351;52.284;9.160;2023-09-07T01:34:16;21.30;99.90
24207;DHT22;12351;52.284;9.160;2023-09-07T01:37:02;21.30;99.90
24207;DHT22;12351;52.284;9.160;2023-09-07T01:39:49;21.20;99.90
24207;DHT22;12351;52.284;9.160;2023-09-07T01:42:37;21.20;99.90
24207;DHT22;12351;52.284;9.160;2023-09-07T01:45:24;21.10;99.90
24207;DHT22;12351;52.284;9.160;2023-09-07T01:48:13;21.10;99.90
24207;DHT22;12351;52.284;9.160;2023-09-07T01:51:01;21.10;99.90
24207;DHT22;12351;52.284;9.160;2023-09-07T01:53:48;21.10;99.90
24207;DHT22;12351;52.284;9.160;2023-09-07T01:56:38;21.00;99.90
24207;DHT22;12351;52.284;9.160;2023-09-07T01:59:28;20.90;99.90
24207;DHT22;12351;52.284;9.160;2023-09-07T02:02:15;20.90;99.90
24207;DHT22;12351;52.284;9.160;2023-09-07T02:05:04;20.90;99.90
24207;DHT22;12351;52.284;9.160;2023-09-07T02:07:51;20.80;99.90
24207;DHT22;12351;52.284;9.160;2023-09-07T02:10:40;20.70;99.90
24207;DHT22;12351;52.284;9.160;2023-09-07T02:13:29;20.70;99.90
24207;DHT22;12351;52.284;9.160;2023-09-07T02:16:17;20.60;99.90
24207;DHT22;12351;52.284;9.160;2023-09-07T02:19:06;20.60;99.90
24207;DHT22;12351;52.284;9.160;2023-09-07T02:21:53;20.60;99.90
24207;DHT22;12351;52.284;9.160;2023-09-07T02:24:41;20.50;99.90
24207;DHT22;12351;52.284;9.160;2023-09-07T02:27:29;20.50;99.90
24207;DHT22;12351;52.284;9.160;2023-09-07T02:30:16;20.40;99.90
24207;DHT22;12351;52.284;9.160;2023-09-07T02:33:04;20.40;99.90
24207;DHT22;12351;52.284;9.160;2023-09-07T02:35:51;20.40;99.90
24207;DHT22;12351;52.284;9.160;2023-09-07T02:38:40;20.30;99.90
24207;DHT22;12351;52.284;9.160;2023-09-07T02:41:30;20.30;99.90
24207;DHT22;12351;52.284;9.160;2023-09-07T02:44:18;20.30;99.90
24207;DHT22;12351;52.284;9.160;2023-09-07T02:47:07;20.20;99.90
24207;DHT22;12351;52.284;9.160;2023-09-07T02:49:55;20.20;99.90
24207;DHT22;12351;52.284;9.160;2023-09-07T02:52:45;20.20;99.90
24207;DHT22;12351;52.284;9.160;2023-09-07T02:55:33;20.20;99.90
24207;DHT22;12351;52.284;9.160;2023-09-07T02:58:23;20.10;99.90
24207;DHT22;12351;52.284;9.160;2023-09-07T03:01:10;20.10;99.90
24207;DHT22;12351;52.284;9.160;2023-09-07T03:04:00;20.10;99.90
24207;DHT22;12351;52.284;9.160;2023-09-07T03:06:51;20.10;99.90
24207;DHT22;12351;52.284;9.160;2023-09-07T03:09:38;20.10;99.90
24207;DHT22;12351;52.284;9.160;2023-09-07T03:12:27;20.00;99.90
24207;DHT22;12351;52.284;9.160;2023-09-07T03:15:16;20.00;99.90
24207;DHT22;12351;52.284;9.160;2023-09-07T03:18:04;20.00;99.90
24207;DHT22;12351;52.284;9.160;2023-09-07T03:20:52;20.00;99.90
24207;DHT22;12351;52.284;9.160;2023-09-07T03:23:40;19.90;99.90
24207;DHT22;12351;52.284;9.160;2023-09-07T03:26:30;19.90;99.90
24207;DHT22;12351;52.284;9.160;2023-09-07T03:29:19;19.80;99.90
24207;DHT22;12351;52.284;9.160;2023-09-07T03:32:07;19.70;99.90
24207;DHT22;12351;52.284;9.160;2023-09-07T03:34:55;19.70;99.90
24207;DHT22;12351;52.284;9.160;2023-09-07T03:37:43;19.70;99.90
24207;DHT22;12351;52.284;9.160;2023-09-07T03:40:35;19.70;99.90
24207;DHT22;12351;52.284;9.160;2023-09-07T03:43:23;19.70;99.90
24207;DHT22;12351;52.284;9.160;2023-09-07T03:46:12;19.70;99.90
24207;DHT22;12351;52.284;9.160;2023-09-07T03:48:59;19.60;99.90
24207;DHT22;12351;52.284;9.160;2023-09-07T03:51:46;19.60;99.90
24207;DHT22;12351;52.284;9.160;2023-09-07T03:54:33;19.50;99.90
24207;DHT22;12351;52.284;9.160;2023-09-07T03:57:22;19.50;99.90
24207;DHT22;12351;52.284;9.160;2023-09-07T04:00:10;19.50;99.90
24207;DHT22;12351;52.284;9.160;2023-09-07T04:02:58;19.40;99.90
24207;DHT22;12351;52.284;9.160;2023-09-07T04:05:45;19.50;99.90
24207;DHT22;12351;52.284;9.160;2023-09-07T04:08:32;19.40;99.90
24207;DHT22;12351;52.284;9.160;2023-09-07T04:11:20;19.40;99.90
24207;DHT22;12351;52.284;9.160;2023-09-07T04:14:08;19.40;99.90
24207;DHT22;12351;52.284;9.160;2023-09-07T04:16:57;19.40;99.90
24207;DHT22;12351;52.284;9.160;2023-09-07T04:19:44;19.40;99.90
24207;DHT22;12351;52.284;9.160;2023-09-07T04:22:31;19.40;99.90
24207;DHT22;12351;52.284;9.160;2023-09-07T04:25:20;19.40;99.90
24207;DHT22;12351;52.284;9.160;2023-09-07T04:28:07;19.40;99.90
24207;DHT22;12351;52.284;9.160;2023-09-07T04:30:54;19.40;99.90
24207;DHT22;12351;52.284;9.160;2023-09-07T04:33:41;19.40;99.90
24207;DHT22;12351;52.284;9.160;2023-09-07T04:36:29;19.40;99.90
24207;DHT22;12351;52.284;9.160;2023-09-07T04:39:17;19.40;99.90
24207;DHT22;12351;52.284;9.160;2023-09-07T04:42:05;19.40;99.90
24207;DHT22;12351;52.284;9.160;2023-09-07T04:44:53;19.40;99.90
24207;DHT22;12351;52.284;9.160;2023-09-07T04:47:41;19.40;99.90
24207;DHT22;12351;52.284;9.160;2023-09-07T04:50:29;19.40;99.90
24207;DHT22;12351;52.284;9.160;2023-09-07T04:53:16;19.40;99.90
24207;DHT22;12351;52.284;9.160;2023-09-07T04:56:05;19.30;99.90
24207;DHT22;12351;52.284;9.160;2023-09-07T04:58:54;19.40;99.90
24207;DHT22;12351;52.284;9.160;2023-09-07T05:01:42;19.40;99.90
24207;DHT22;12351;52.284;9.160;2023-09-07T05:04:29;19.30;99.90
24207;DHT22;12351;52.284;9.160;2023-09-07T05:07:17;19.30;99.90
24207;DHT22;12351;52.284;9.160;2023-09-07T05:10:04;19.30;99.90
24207;DHT22;12351;52.284;9.160;2023-09-07T05:12:52;19.20;99.90
24207;DHT22;12351;52.284;9.160;2023-09-07T05:18:29;19.20;99.90
24207;DHT22;12351;52.284;9.160;2023-09-07T05:21:16;19.30;99.90
24207;DHT22;12351;52.284;9.160;2023-09-07T05:24:04;19.30;99.90
24207;DHT22;12351;52.284;9.160;2023-09-07T05:26:51;19.40;99.90
24207;DHT22;12351;52.284;9.160;2023-09-07T05:29:37;19.40;99.90
24207;DHT22;12351;52.284;9.160;2023-09-07T05:32:24;19.40;99.90
24207;DHT22;12351;52.284;9.160;2023-09-07T05:35:11;19.40;99.90
24207;DHT22;12351;52.284;9.160;2023-09-07T05:37:59;19.40;99.90
24207;DHT22;12351;52.284;9.160;2023-09-07T05:40:46;19.40;99.90
24207;DHT22;12351;52.284;9.160;2023-09-07T05:43:34;19.40;99.90
24207;DHT22;12351;52.284;9.160;2023-09-07T05:46:21;19.50;99.90
24207;DHT22;12351;52.284;9.160;2023-09-07T05:49:08;19.50;99.90
24207;DHT22;12351;52.284;9.160;2023-09-07T05:51:56;19.60;99.90
24207;DHT22;12351;52.284;9.160;2023-09-07T05:54:43;19.70;99.90
24207;DHT22;12351;52.284;9.160;2023-09-07T05:57:30;19.70;99.90
24207;DHT22;12351;52.284;9.160;2023-09-07T06:00:17;19.70;99.90
24207;DHT22;12351;52.284;9.160;2023-09-07T06:03:04;19.80;99.90
24207;DHT22;12351;52.284;9.160;2023-09-07T06:05:51;19.90;99.90
24207;DHT22;12351;52.284;9.160;2023-09-07T06:08:37;20.20;99.90
24207;DHT22;12351;52.284;9.160;2023-09-07T06:11:25;20.50;99.90
24207;DHT22;12351;52.284;9.160;2023-09-07T06:14:11;20.60;99.90
24207;DHT22;12351;52.284;9.160;2023-09-07T06:16:58;20.80;99.90
24207;DHT22;12351;52.284;9.160;2023-09-07T06:19:46;20.90;99.90
24207;DHT22;12351;52.284;9.160;2023-09-07T06:22:33;21.10;99.90
24207;DHT22;12351;52.284;9.160;2023-09-07T06:25:20;21.20;99.90
24207;DHT22;12351;52.284;9.160;2023-09-07T06:28:08;21.10;99.90
24207;DHT22;12351;52.284;9.160;2023-09-07T06:30:57;20.90;99.90
24207;DHT22;12351;52.284;9.160;2023-09-07T06:33:44;21.00;99.90
24207;DHT22;12351;52.284;9.160;2023-09-07T06:36:31;21.00;99.90
24207;DHT22;12351;52.284;9.160;2023-09-07T06:39:18;20.90;99.90
24207;DHT22;12351;52.284;9.160;2023-09-07T06:42:05;20.90;99.90
24207;DHT22;12351;52.284;9.160;2023-09-07T06:44:52;20.90;99.90
24207;DHT22;12351;52.284;9.160;2023-09-07T06:47:39;20.90;99.90
24207;DHT22;12351;52.284;9.160;2023-09-07T06:50:26;21.00;99.90
24207;DHT22;12351;52.284;9.160;2023-09-07T06:53:13;21.10;99.90
24207;DHT22;12351;52.284;9.160;2023-09-07T06:56:02;21.10;99.90
24207;DHT22;12351;52.284;9.160;2023-09-07T06:58:49;21.10;99.90
24207;DHT22;12351;52.284;9.160;2023-09-07T07:01:38;21.30;99.90
24207;DHT22;12351;52.284;9.160;2023-09-07T07:04:25;21.40;99.90
24207;DHT22;12351;52.284;9.160;2023-09-07T07:07:12;21.50;99.90
24207;DHT22;12351;52.284;9.160;2023-09-07T07:09:59;21.50;99.90
24207;DHT22;12351;52.284;9.160;2023-09-07T07:12:45;21.50;99.90
24207;DHT22;12351;52.284;9.160;2023-09-07T07:15:32;21.50;99.90
24207;DHT22;12351;52.284;9.160;2023-09-07T07:18:22;21.50;99.90
24207;DHT22;12351;52.284;9.160;2023-09-07T07:21:09;21.50;99.90
24207;DHT22;12351;52.284;9.160;2023-09-07T07:23:58;21.70;99.90
24207;DHT22;12351;52.284;9.160;2023-09-07T07:26:46;21.90;99.90
24207;DHT22;12351;52.284;9.160;2023-09-07T07:29:33;21.90;99.90
24207;DHT22;12351;52.284;9.160;2023-09-07T07:32:20;22.00;99.90
24207;DHT22;12351;52.284;9.160;2023-09-07T07:35:09;22.00;99.90
24207;DHT22;12351;52.284;9.160;2023-09-07T07:37:56;22.10;99.90
24207;DHT22;12351;52.284;9.160;2023-09-07T07:40:43;22.10;99.90
24207;DHT22;12351;52.284;9.160;2023-09-07T07:43:33;22.30;99.90
24207;DHT22;12351;52.284;9.160;2023-09-07T07:46:20;22.20;99.90
24207;DHT22;12351;52.284;9.160;2023-09-07T07:49:08;22.30;99.90
24207;DHT22;12351;52.284;9.160;2023-09-07T07:51:54;22.40;99.90
24207;DHT22;12351;52.284;9.160;2023-09-07T07:54:43;22.60;99.90
24207;DHT22;12351;52.284;9.160;2023-09-07T07:57:31;22.70;99.90
24207;DHT22;12351;52.284;9.160;2023-09-07T08:00:18;22.80;99.90
24207;DHT22;12351;52.284;9.160;2023-09-07T08:03:06;22.80;99.90
24207;DHT22;12351;52.284;9.160;2023-09-07T08:05:52;22.90;99.90
24207;DHT22;12351;52.284;9.160;2023-09-07T08:08:41;23.00;99.90
24207;DHT22;12351;52.284;9.160;2023-09-07T08:11:29;23.00;99.90
24207;DHT22;12351;52.284;9.160;2023-09-07T08:14:17;23.20;99.90
24207;DHT22;12351;52.284;9.160;2023-09-07T08:17:03;23.30;99.90
24207;DHT22;12351;52.284;9.160;2023-09-07T08:19:51;23.30;99.90
24207;DHT22;12351;52.284;9.160;2023-09-07T08:22:39;23.40;99.90
24207;DHT22;12351;52.284;9.160;2023-09-07T08:25:27;23.40;99.90
24207;DHT22;12351;52.284;9.160;2023-09-07T08:28:14;23.60;99.90
24207;DHT22;12351;52.284;9.160;2023-09-07T08:31:03;23.60;99.90
24207;DHT22;12351;52.284;9.160;2023-09-07T08:33:50;23.50;99.90
24207;DHT22;12351;52.284;9.160;2023-09-07T08:36:37;23.60;99.90
24207;DHT22;12351;52.284;9.160;2023-09-07T08:39:24;23.50;99.90
24207;DHT22;12351;52.284;9.160;2023-09-07T08:42:11;23.60;99.90
24207;DHT22;12351;52.284;9.160;2023-09-07T08:45:00;23.80;99.90
24207;DHT22;12351;52.284;9.160;2023-09-07T08:47:49;23.90;99.90
24207;DHT22;12351;52.284;9.160;2023-09-07T08:50:38;24.00;99.90
24207;DHT22;12351;52.284;9.160;2023-09-07T08:53:28;24.10;99.90
24207;DHT22;12351;52.284;9.160;2023-09-07T08:56:17;24.20;99.90
24207;DHT22;12351;52.284;9.160;2023-09-07T08:59:06;24.30;99.90
24207;DHT22;12351;52.284;9.160;2023-09-07T09:01:56;24.50;99.90
24207;DHT22;12351;52.284;9.160;2023-09-07T09:04:44;24.50;99.90
24207;DHT22;12351;52.284;9.160;2023-09-07T09:07:31;24.70;99.90
24207;DHT22;12351;52.284;9.160;2023-09-07T09:10:18;24.70;99.90
24207;DHT22;12351;52.284;9.160;2023-09-07T09:13:05;24.70;99.90
24207;DHT22;12351;52.284;9.160;2023-09-07T09:15:52;24.80;99.90
24207;DHT22;12351;52.284;9.160;2023-09-07T09:21:30;25.00;99.90
24207;DHT22;12351;52.284;9.160;2023-09-07T09:24:17;25.10;99.90
24207;DHT22;12351;52.284;9.160;2023-09-07T09:27:04;25.30;99.90
24207;DHT22;12351;52.284;9.160;2023-09-07T09:29:51;25.40;99.90
24207;DHT22;12351;52.284;9.160;2023-09-07T09:32:40;25.40;99.90
24207;DHT22;12351;52.284;9.160;2023-09-07T09:35:29;25.60;99.90
24207;DHT22;12351;52.284;9.160;2023-09-07T09:38:18;25.70;99.90
24207;DHT22;12351;52.284;9.160;2023-09-07T09:41:06;25.70;99.90
24207;DHT22;12351;52.284;9.160;2023-09-07T09:43:56;25.90;99.90
24207;DHT22;12351;52.284;9.160;2023-09-07T09:46:44;26.10;99.90
24207;DHT22;12351;52.284;9.160;2023-09-07T09:49:32;26.10;99.90
24207;DHT22;12351;52.284;9.160;2023-09-07T09:52:19;26.40;99.90
24207;DHT22;12351;52.284;9.160;2023-09-07T09:55:08;26.40;99.90
24207;DHT22;12351;52.284;9.160;2023-09-07T09:57:56;26.50;99.90
24207;DHT22;12351;52.284;9.160;2023-09-07T10:00:45;26.50;99.90
24207;DHT22;12351;52.284;9.160;2023-09-07T10:03:37;26.60;99.90
24207;DHT22;12351;52.284;9.160;2023-09-07T10:06:24;26.60;99.90
24207;DHT22;12351;52.284;9.160;2023-09-07T10:09:12;26.70;99.90
24207;DHT22;12351;52.284;9.160;2023-09-07T10:12:03;26.80;99.90
24207;DHT22;12351;52.284;9.160;2023-09-07T10:14:52;26.90;99.90
24207;DHT22;12351;52.284;9.160;2023-09-07T10:17:40;27.00;99.90
24207;DHT22;12351;52.284;9.160;2023-09-07T10:20:27;27.10;99.90
24207;DHT22;12351;52.284;9.160;2023-09-07T10:23:14;27.10;99.90
24207;DHT22;12351;52.284;9.160;2023-09-07T10:26:03;27.20;99.90
24207;DHT22;12351;52.284;9.160;2023-09-07T10:31:40;27.10;99.90
24207;DHT22;12351;52.284;9.160;2023-09-07T10:37:18;27.40;99.90
24207;DHT22;12351;52.284;9.160;2023-09-07T10:40:07;27.40;99.90
24207;DHT22;12351;52.284;9.160;2023-09-07T10:45:45;27.50;99.90
24207;DHT22;12351;52.284;9.160;2023-09-07T10:48:34;27.50;99.90
24207;DHT22;12351;52.284;9.160;2023-09-07T10:51:23;27.50;99.90
24207;DHT22;12351;52.284;9.160;2023-09-07T10:54:16;27.60;99.90
24207;DHT22;12351;52.284;9.160;2023-09-07T10:59:49;27.50;99.90
24207;DHT22;12351;52.284;9.160;2023-09-07T11:02:38;27.60;99.90
24207;DHT22;12351;52.284;9.160;2023-09-07T11:05:25;27.70;99.90
24207;DHT22;12351;52.284;9.160;2023-09-07T11:08:16;27.90;99.90
24207;DHT22;12351;52.284;9.160;2023-09-07T11:11:03;27.90;99.90
24207;DHT22;12351;52.284;9.160;2023-09-07T11:13:50;28.00;99.90
24207;DHT22;12351;52.284;9.160;2023-09-07T11:16:37;28.10;99.90
24207;DHT22;12351;52.284;9.160;2023-09-07T11:19:25;27.90;99.90
24207;DHT22;12351;52.284;9.160;2023-09-07T11:22:12;27.90;99.90
24207;DHT22;12351;52.284;9.160;2023-09-07T11:25:01;28.10;99.90
24207;DHT22;12351;52.284;9.160;2023-09-07T11:27:48;28.20;99.90
24207;DHT22;12351;52.284;9.160;2023-09-07T11:30:35;28.20;99.90
24207;DHT22;12351;52.284;9.160;2023-09-07T11:33:23;28.20;99.90
24207;DHT22;12351;52.284;9.160;2023-09-07T11:36:10;28.20;99.90
24207;DHT22;12351;52.284;9.160;2023-09-07T11:38:58;28.30;99.90
24207;DHT22;12351;52.284;9.160;2023-09-07T11:41:47;28.20;99.90
24207;DHT22;12351;52.284;9.160;2023-09-07T11:44:34;28.40;99.90
24207;DHT22;12351;52.284;9.160;2023-09-07T11:47:21;28.40;99.90
24207;DHT22;12351;52.284;9.160;2023-09-07T11:50:08;28.40;99.90
24207;DHT22;12351;52.284;9.160;2023-09-07T11:52:55;28.50;99.90
24207;DHT22;12351;52.284;9.160;2023-09-07T11:55:42;28.50;99.90
24207;DHT22;12351;52.284;9.160;2023-09-07T11:58:30;28.30;99.90
24207;DHT22;12351;52.284;9.160;2023-09-07T12:01:18;28.50;99.90
24207;DHT22;12351;52.284;9.160;2023-09-07T12:04:05;28.60;99.90
24207;DHT22;12351;52.284;9.160;2023-09-07T12:06:53;28.80;99.90
24207;DHT22;12351;52.284;9.160;2023-09-07T12:09:40;28.60;99.90
24207;DHT22;12351;52.284;9.160;2023-09-07T12:12:28;28.60;99.90
24207;DHT22;12351;52.284;9.160;2023-09-07T12:15:15;28.80;99.90
24207;DHT22;12351;52.284;9.160;2023-09-07T12:18:02;28.90;99.90
24207;DHT22;12351;52.284;9.160;2023-09-07T12:20:49;29.00;99.90
24207;DHT22;12351;52.284;9.160;2023-09-07T12:23:35;29.00;99.90
24207;DHT22;12351;52.284;9.160;2023-09-07T12:26:23;29.00;99.90
24207;DHT22;12351;52.284;9.160;2023-09-07T12:29:09;29.20;99.90
24207;DHT22;12351;52.284;9.160;2023-09-07T12:31:56;29.10;99.90
24207;DHT22;12351;52.284;9.160;2023-09-07T12:34:43;29.20;99.90
24207;DHT22;12351;52.284;9.160;2023-09-07T12:37:32;29.20;99.90
24207;DHT22;12351;52.284;9.160;2023-09-07T12:40:22;29.10;99.90
24207;DHT22;12351;52.284;9.160;2023-09-07T12:43:09;29.40;99.90
24207;DHT22;12351;52.284;9.160;2023-09-07T12:45:56;29.40;99.90
24207;DHT22;12351;52.284;9.160;2023-09-07T12:48:43;29.40;99.90
24207;DHT22;12351;52.284;9.160;2023-09-07T12:51:30;29.50;99.90
24207;DHT22;12351;52.284;9.160;2023-09-07T12:54:18;29.50;99.90
24207;DHT22;12351;52.284;9.160;2023-09-07T12:57:06;29.50;99.90
24207;DHT22;12351;52.284;9.160;2023-09-07T12:59:53;29.50;99.90
24207;DHT22;12351;52.284;9.160;2023-09-07T13:02:40;29.40;99.90
24207;DHT22;12351;52.284;9.160;2023-09-07T13:05:28;29.50;99.90
24207;DHT22;12351;52.284;9.160;2023-09-07T13:08:15;29.50;99.90
24207;DHT22;12351;52.284;9.160;2023-09-07T13:11:02;29.50;99.90
24207;DHT22;12351;52.284;9.160;2023-09-07T13:13:49;29.60;99.90
24207;DHT22;12351;52.284;9.160;2023-09-07T13:16:38;29.60;99.90
24207;DHT22;12351;52.284;9.160;2023-09-07T13:19:24;29.80;99.90
24207;DHT22;12351;52.284;9.160;2023-09-07T13:22:12;29.90;99.90
24207;DHT22;12351;52.284;9.160;2023-09-07T13:24:59;29.90;99.90
24207;DHT22;12351;52.284;9.160;2023-09-07T13:27:47;30.00;99.90
24207;DHT22;12351;52.284;9.160;2023-09-07T13:30:35;30.10;99.90
24207;DHT22;12351;52.284;9.160;2023-09-07T13:33:22;30.00;99.90
24207;DHT22;12351;52.284;9.160;2023-09-07T13:36:09;29.90;99.90
24207;DHT22;12351;52.284;9.160;2023-09-07T13:38:56;29.90;99.90
24207;DHT22;12351;52.284;9.160;2023-09-07T13:41:45;29.90;99.90
24207;DHT22;12351;52.284;9.160;2023-09-07T13:44:33;29.90;99.90
24207;DHT22;12351;52.284;9.160;2023-09-07T13:47:20;29.70;99.90
24207;DHT22;12351;52.284;9.160;2023-09-07T13:50:07;29.90;99.90
24207;DHT22;12351;52.284;9.160;2023-09-07T13:52:54;30.10;99.90
24207;DHT22;12351;52.284;9.160;2023-09-07T13:55:41;30.10;99.90
24207;DHT22;12351;52.284;9.160;2023-09-07T13:58:29;30.20;99.90
24207;DHT22;12351;52.284;9.160;2023-09-07T14:01:17;30.00;99.90
24207;DHT22;12351;52.284;9.160;2023-09-07T14:04:04;29.80;99.90
24207;DHT22;12351;52.284;9.160;2023-09-07T14:06:51;29.90;99.90
24207;DHT22;12351;52.284;9.160;2023-09-07T14:09:38;29.90;99.90
24207;DHT22;12351;52.284;9.160;2023-09-07T14:12:28;29.80;99.90
24207;DHT22;12351;52.284;9.160;2023-09-07T14:15:15;29.90;99.90
24207;DHT22;12351;52.284;9.160;2023-09-07T14:18:02;30.00;99.90
24207;DHT22;12351;52.284;9.160;2023-09-07T14:20:49;29.90;99.90
24207;DHT22;12351;52.284;9.160;2023-09-07T14:23:38;30.10;99.90
24207;DHT22;12351;52.284;9.160;2023-09-07T14:26:26;30.00;99.90
24207;DHT22;12351;52.284;9.160;2023-09-07T14:29:13;29.90;99.90
24207;DHT22;12351;52.284;9.160;2023-09-07T14:32:00;30.00;99.90
24207;DHT22;12351;52.284;9.160;2023-09-07T14:34:47;30.10;99.90
24207;DHT22;12351;52.284;9.160;2023-09-07T14:37:33;30.10;99.90
24207;DHT22;12351;52.284;9.160;2023-09-07T14:40:20;30.00;99.90
24207;DHT22;12351;52.284;9.160;2023-09-07T14:43:09;30.10;99.90
24207;DHT22;12351;52.284;9.160;2023-09-07T14:45:56;30.10;99.90
24207;DHT22;12351;52.284;9.160;2023-09-07T14:48:44;30.10;99.90
24207;DHT22;12351;52.284;9.160;2023-09-07T14:51:32;30.00;99.90
24207;DHT22;12351;52.284;9.160;2023-09-07T14:54:19;29.90;99.90
24207;DHT22;12351;52.284;9.160;2023-09-07T14:57:06;29.90;99.90
24207;DHT22;12351;52.284;9.160;2023-09-07T14:59:53;29.90;99.90
24207;DHT22;12351;52.284;9.160;2023-09-07T15:02:40;30.10;99.90
24207;DHT22;12351;52.284;9.160;2023-09-07T15:05:28;30.20;99.90
24207;DHT22;12351;52.284;9.160;2023-09-07T15:08:15;29.90;99.90
24207;DHT22;12351;52.284;9.160;2023-09-07T15:11:02;30.00;99.90
24207;DHT22;12351;52.284;9.160;2023-09-07T15:13:49;30.00;99.90
24207;DHT22;12351;52.284;9.160;2023-09-07T15:16:37;30.00;99.90
24207;DHT22;12351;52.284;9.160;2023-09-07T15:19:24;30.00;99.90
24207;DHT22;12351;52.284;9.160;2023-09-07T15:22:11;30.00;99.90
24207;DHT22;12351;52.284;9.160;2023-09-07T15:24:58;30.10;99.90
24207;DHT22;12351;52.284;9.160;2023-09-07T15:27:46;29.90;99.90
24207;DHT22;12351;52.284;9.160;2023-09-07T15:30:33;29.90;99.90
24207;DHT22;12351;52.284;9.160;2023-09-07T15:33:21;29.90;99.90
24207;DHT22;12351;52.284;9.160;2023-09-07T15:36:08;29.80;99.90
24207;DHT22;12351;52.284;9.160;2023-09-07T15:38:55;29.70;99.90
24207;DHT22;12351;52.284;9.160;2023-09-07T15:41:48;29.70;99.90
24207;DHT22;12351;52.284;9.160;2023-09-07T15:44:37;29.60;99.90
24207;DHT22;12351;52.284;9.160;2023-09-07T15:47:24;29.70;99.90
24207;DHT22;12351;52.284;9.160;2023-09-07T15:50:14;29.80;99.90
24207;DHT22;12351;52.284;9.160;2023-09-07T15:53:01;29.60;99.90
24207;DHT22;12351;52.284;9.160;2023-09-07T15:55:49;29.60;99.90
24207;DHT22;12351;52.284;9.160;2023-09-07T15:58:36;29.50;99.90
24207;DHT22;12351;52.284;9.160;2023-09-07T16:01:23;29.50;99.90
24207;DHT22;12351;52.284;9.160;2023-09-07T16:04:10;29.60;99.90
24207;DHT22;12351;52.284;9.160;2023-09-07T16:06:57;29.60;99.90
24207;DHT22;12351;52.284;9.160;2023-09-07T16:09:44;29.60;99.90
24207;DHT22;12351;52.284;9.160;2023-09-07T16:12:35;29.60;99.90
24207;DHT22;12351;52.284;9.160;2023-09-07T16:15:20;29.60;99.90
24207;DHT22;12351;52.284;9.160;2023-09-07T16:18:07;29.50;99.90
24207;DHT22;12351;52.284;9.160;2023-09-07T16:20:55;29.50;99.90
24207;DHT22;12351;52.284;9.160;2023-09-07T16:23:42;29.50;99.90
24207;DHT22;12351;52.284;9.160;2023-09-07T16:26:36;29.60;99.90
24207;DHT22;12351;52.284;9.160;2023-09-07T16:29:23;29.70;99.90
24207;DHT22;12351;52.284;9.160;2023-09-07T16:32:12;29.50;99.90
24207;DHT22;12351;52.284;9.160;2023-09-07T16:34:59;29.40;99.90
24207;DHT22;12351;52.284;9.160;2023-09-07T16:37:46;29.30;99.90
24207;DHT22;12351;52.284;9.160;2023-09-07T16:40:38;29.40;99.90
24207;DHT22;12351;52.284;9.160;2023-09-07T16:43:25;29.40;99.90
24207;DHT22;12351;52.284;9.160;2023-09-07T16:46:12;29.30;99.90
24207;DHT22;12351;52.284;9.160;2023-09-07T16:49:00;29.20;99.90
24207;DHT22;12351;52.284;9.160;2023-09-07T16:51:47;29.20;99.90
24207;DHT22;12351;52.284;9.160;2023-09-07T16:54:34;29.30;99.90
24207;DHT22;12351;52.284;9.160;2023-09-07T16:57:22;29.20;99.90
24207;DHT22;12351;52.284;9.160;2023-09-07T17:00:16;29.20;99.90
24207;DHT22;12351;52.284;9.160;2023-09-07T17:03:05;29.10;99.90
24207;DHT22;12351;52.284;9.160;2023-09-07T17:05:56;29.10;99.90
24207;DHT22;12351;52.284;9.160;2023-09-07T17:08:43;28.90;99.90
24207;DHT22;12351;52.284;9.160;2023-09-07T17:11:30;28.90;99.90
24207;DHT22;12351;52.284;9.160;2023-09-07T17:14:19;28.90;99.90
24207;DHT22;12351;52.284;9.160;2023-09-07T17:17:08;29.00;99.90
24207;DHT22;12351;52.284;9.160;2023-09-07T17:19:58;29.00;99.90
24207;DHT22;12351;52.284;9.160;2023-09-07T17:22:46;28.90;99.90
24207;DHT22;12351;52.284;9.160;2023-09-07T17:25:33;28.70;99.90
24207;DHT22;12351;52.284;9.160;2023-09-07T17:28:20;28.70;99.90
24207;DHT22;12351;52.284;9.160;2023-09-07T17:33:58;28.50;99.90
24207;DHT22;12351;52.284;9.160;2023-09-07T17:36:47;28.40;99.90
24207;DHT22;12351;52.284;9.160;2023-09-07T17:39:35;28.30;99.90
24207;DHT22;12351;52.284;9.160;2023-09-07T17:42:24;28.30;99.90
24207;DHT22;12351;52.284;9.160;2023-09-07T17:45:17;28.00;99.90
24207;DHT22;12351;52.284;9.160;2023-09-07T17:48:05;27.70;99.90
24207;DHT22;12351;52.284;9.160;2023-09-07T17:50:53;27.80;99.90
24207;DHT22;12351;52.284;9.160;2023-09-07T17:53:42;27.80;99.90
24207;DHT22;12351;52.284;9.160;2023-09-07T17:56:31;27.70;99.90
24207;DHT22;12351;52.284;9.160;2023-09-07T17:59:20;27.70;99.90